Time;durP1;ratioP1;P1;durP2;ratioP2;P2;SDS_P1;SDS_P2;PMS_P1;PMS_P2;Temp;Humidity;BMP_temperature;BMP_pressure;BME280_temperature;BME280_humidity;BME280_pressure;Samples;Min_cycle;Max_cycle;Signal;HPM_P1;HPM_P2
2021/09/10 00:01:52;;;;;;;;;6.75;6.25;;;;;21.89;63.34;100418.00;5097831;27;46031;-61
2021/09/10 00:04:17;;;;;;;;;6.75;6.75;;;;;21.89;62.92;100421.50;5100064;27;61256;-60
2021/09/10 00:06:43;;;;;;;;;8.00;6.25;;;;;21.89;63.28;100420.69;5100783;27;45553;-62
2021/09/10 00:09:08;;;;;;;;;7.75;5.75;;;;;21.87;63.06;100409.38;5100564;27;45539;-60
2021/09/10 00:11:33;;;;;;;;;4.00;4.00;;;;;21.86;63.14;100421.94;5099559;27;68862;-60
2021/09/10 00:13:59;;;;;;;;;6.00;5.00;;;;;21.84;63.53;100425.84;5099585;27;69117;-58
2021/09/10 00:16:24;;;;;;;;;7.00;5.00;;;;;21.83;63.33;100421.53;5100690;27;45378;-60
2021/09/10 00:18:49;;;;;;;;;7.00;4.00;;;;;21.81;63.21;100416.41;5082140;27;45530;-61
2021/09/10 00:21:15;;;;;;;;;5.00;5.00;;;;;21.81;63.45;100415.56;5098890;27;73551;-60
2021/09/10 00:23:40;;;;;;;;;4.00;4.00;;;;;21.79;63.91;100416.59;5100442;27;45239;-59
2021/09/10 00:26:06;;;;;;;;;6.50;5.25;;;;;21.78;64.15;100414.97;5099378;27;68384;-59
2021/09/10 00:28:31;;;;;;;;;8.50;4.50;;;;;21.79;63.46;100421.97;5100084;27;45199;-60
2021/09/10 00:30:56;;;;;;;;;4.50;4.50;;;;;21.79;63.47;100421.97;5099221;27;73566;-62
2021/09/10 00:33:22;;;;;;;;;5.00;5.00;;;;;21.79;63.84;100411.25;5100145;27;45185;-61
2021/09/10 00:35:47;;;;;;;;;4.25;4.25;;;;;21.81;63.50;100412.91;5099549;27;57224;-60
2021/09/10 00:38:13;;;;;;;;;5.75;4.00;;;;;21.78;63.53;100420.31;5099829;27;45240;-61
2021/09/10 00:40:38;;;;;;;;;4.00;4.00;;;;;21.78;63.70;100417.63;5099439;27;65578;-61
2021/09/10 00:43:03;;;;;;;;;4.75;4.00;;;;;21.76;64.14;100417.03;5100015;27;45168;-61
2021/09/10 00:45:29;;;;;;;;;4.25;4.25;;;;;21.74;63.55;100421.78;5098459;27;60369;-61
2021/09/10 00:47:55;;;;;;;;;4.00;3.75;;;;;21.74;64.25;100424.44;5099976;27;45576;-60
2021/09/10 00:50:21;;;;;;;;;5.75;4.75;;;;;21.73;64.35;100430.81;5099782;27;45330;-61
2021/09/10 00:52:47;;;;;;;;;5.25;4.75;;;;;21.74;63.81;100429.78;5080598;27;70045;-61
2021/09/10 00:55:12;;;;;;;;;4.00;4.00;;;;;21.74;64.37;100437.00;5099158;27;45523;-61
2021/09/10 00:57:38;;;;;;;;;4.00;4.00;;;;;21.74;63.69;100440.50;5099914;27;45454;-61
2021/09/10 01:00:04;;;;;;;;;6.50;5.50;;;;;21.75;63.83;100438.66;5099679;27;46008;-61
2021/09/10 01:02:30;;;;;;;;;7.00;6.25;;;;;21.77;63.84;100439.25;5099670;27;45906;-60
2021/09/10 01:04:55;;;;;;;;;6.00;4.50;;;;;21.75;64.19;100441.31;5099110;27;67207;-61
2021/09/10 01:07:23;;;;;;;;;6.50;5.25;;;;;21.76;64.20;100442.97;5081618;27;45447;-61
2021/09/10 01:09:49;;;;;;;;;5.00;5.00;;;;;21.74;64.34;100445.03;5099648;27;45536;-60
2021/09/10 01:12:14;;;;;;;;;7.00;5.00;;;;;21.72;63.97;100441.75;5080633;27;67831;-60
2021/09/10 01:14:39;;;;;;;;;4.50;4.00;;;;;21.72;64.43;100437.25;5079298;27;61426;-60
2021/09/10 01:17:05;;;;;;;;;4.75;4.00;;;;;21.73;64.21;100444.19;5098981;27;60492;-61
2021/09/10 01:19:30;;;;;;;;;5.00;5.00;;;;;21.71;64.35;100451.63;5064109;27;50864;-61
2021/09/10 01:21:57;;;;;;;;;6.00;5.00;;;;;21.70;64.03;100439.31;5099234;27;45398;-61
2021/09/10 01:24:35;;;;;;;;;4.75;4.00;;;;;21.70;64.11;100444.66;5098751;27;45290;-61
2021/09/10 01:27:00;;;;;;;;;3.75;3.75;;;;;21.69;63.91;100451.03;5081332;27;45378;-60
2021/09/10 01:29:26;;;;;;;;;3.00;3.00;;;;;21.67;64.39;100439.72;5099347;27;45995;-61
2021/09/10 01:31:51;;;;;;;;;3.50;3.50;;;;;21.64;64.39;100440.94;5099552;27;45818;-61
2021/09/10 01:34:17;;;;;;;;;6.00;4.00;;;;;21.63;64.23;100447.34;5098704;27;63489;-61
2021/09/10 01:36:42;;;;;;;;;5.00;3.75;;;;;21.62;64.44;100452.91;5099483;27;45342;-61
2021/09/10 01:39:08;;;;;;;;;4.75;4.00;;;;;21.61;63.88;100451.22;5098298;27;45352;-61
2021/09/10 01:41:33;;;;;;;;;3.00;3.00;;;;;21.60;64.20;100454.94;5099097;27;45362;-60
2021/09/10 01:43:58;;;;;;;;;3.75;3.75;;;;;21.58;64.09;100454.31;5098537;27;61899;-61
2021/09/10 01:46:24;;;;;;;;;3.00;3.00;;;;;21.58;64.55;100454.31;5098309;27;64472;-62
2021/09/10 01:48:50;;;;;;;;;4.00;4.00;;;;;21.56;64.54;100453.72;5098074;27;69098;-61
2021/09/10 01:51:16;;;;;;;;;3.50;3.50;;;;;21.55;64.52;100452.88;5099082;27;45371;-60
2021/09/10 01:53:41;;;;;;;;;7.00;3.00;;;;;21.53;64.13;100452.28;5099117;27;45307;-61
2021/09/10 01:56:07;;;;;;;;;4.50;4.50;;;;;21.51;64.11;100451.66;5097941;27;66643;-61
2021/09/10 01:58:32;;;;;;;;;3.00;3.00;;;;;21.51;64.15;100446.31;5080629;27;46033;-61
2021/09/10 02:00:57;;;;;;;;;4.25;4.25;;;;;21.49;64.10;100451.03;5098884;27;45420;-61
2021/09/10 02:03:23;;;;;;;;;3.00;3.00;;;;;21.51;64.39;100446.31;5099040;27;45273;-61
2021/09/10 02:05:49;;;;;;;;;3.25;3.25;;;;;21.47;64.74;100450.44;5099015;27;45254;-61
2021/09/10 02:08:15;;;;;;;;;3.50;3.50;;;;;21.45;64.53;100449.84;5098541;27;46586;-61
2021/09/10 02:10:40;;;;;;;;;4.00;4.00;;;;;21.44;64.66;100445.53;5098099;27;64189;-60
2021/09/10 02:13:05;;;;;;;;;3.50;3.00;;;;;21.43;65.02;100450.06;5098579;27;45452;-60
2021/09/10 02:15:31;;;;;;;;;4.25;3.00;;;;;21.45;64.81;100449.84;5098671;27;45427;-61
2021/09/10 02:17:56;;;;;;;;;3.50;3.00;;;;;21.46;64.77;100454.97;5097978;27;57585;-61
2021/09/10 02:20:22;;;;;;;;;7.00;3.00;;;;;21.47;65.10;100453.09;5097700;27;68075;-61
2021/09/10 02:22:47;;;;;;;;;4.25;4.00;;;;;21.48;65.12;100455.59;5098512;27;45584;-61
2021/09/10 02:25:12;;;;;;;;;3.25;3.25;;;;;21.48;65.16;100455.59;5097418;27;58422;-60
2021/09/10 02:27:38;;;;;;;;;3.25;3.25;;;;;21.50;64.55;100458.88;5097172;27;69745;-60
2021/09/10 02:30:04;;;;;;;;;5.00;3.75;;;;;21.50;64.87;100455.38;5098447;27;45293;-60
2021/09/10 02:32:29;;;;;;;;;3.75;3.75;;;;;21.47;65.12;100453.94;5080244;27;45281;-60
2021/09/10 02:34:54;;;;;;;;;3.25;3.25;;;;;21.45;64.77;100450.66;5097605;27;63136;-61
2021/09/10 02:37:20;;;;;;;;;3.25;3.00;;;;;21.43;65.01;100455.41;5097608;27;62780;-61
2021/09/10 02:39:46;;;;;;;;;3.00;3.00;;;;;21.44;64.92;100457.03;5097374;27;66185;-61
2021/09/10 02:42:12;;;;;;;;;3.00;3.00;;;;;21.44;64.93;100461.56;5098310;27;45346;-62
2021/09/10 02:44:37;;;;;;;;;3.25;2.00;;;;;21.43;65.00;100455.41;5098332;27;45497;-61
2021/09/10 02:47:03;;;;;;;;;3.00;3.00;;;;;21.41;65.34;100453.97;5097875;27;51867;-61
2021/09/10 02:49:28;;;;;;;;;4.00;4.00;;;;;21.40;65.51;100447.78;5078854;27;45244;-61
2021/09/10 02:51:54;;;;;;;;;2.00;2.00;;;;;21.40;65.20;100450.47;5098206;27;45235;-60
2021/09/10 02:54:19;;;;;;;;;5.50;4.00;;;;;21.41;65.24;100448.63;5097639;27;50868;-61
2021/09/10 02:56:44;;;;;;;;;4.50;4.00;;;;;21.42;64.97;100450.28;5096923;27;72378;-60
2021/09/10 02:59:10;;;;;;;;;4.00;4.00;;;;;21.40;65.27;100442.44;5097193;27;64609;-61
2021/09/10 03:01:35;;;;;;;;;3.25;3.25;;;;;21.40;65.55;100444.31;5097172;27;64442;-61
2021/09/10 03:04:00;;;;;;;;;6.25;4.50;;;;;21.40;65.33;100445.13;5098032;27;45222;-61
2021/09/10 03:06:26;;;;;;;;;5.00;4.00;;;;;21.40;65.68;100445.13;5097706;27;45312;-60
2021/09/10 03:08:51;;;;;;;;;5.00;4.50;;;;;21.42;65.67;100442.25;5096663;27;69777;-61
2021/09/10 03:11:17;;;;;;;;;5.00;4.00;;;;;21.41;65.22;100437.94;5097691;27;48039;-61
2021/09/10 03:13:42;;;;;;;;;4.75;3.00;;;;;21.41;65.67;100441.41;5096835;27;68979;-61
2021/09/10 03:16:07;;;;;;;;;5.00;4.00;;;;;21.41;65.25;100436.06;5097740;27;45803;-61
2021/09/10 03:18:33;;;;;;;;;5.50;4.00;;;;;21.43;65.40;100433.22;5096889;27;65515;-61
2021/09/10 03:20:58;;;;;;;;;3.50;3.50;;;;;21.43;65.50;100431.34;5097889;27;45368;-60
2021/09/10 03:23:24;;;;;;;;;4.00;3.00;;;;;21.44;65.68;100430.31;5079308;27;45605;-61
2021/09/10 03:25:49;;;;;;;;;3.25;2.75;;;;;21.45;65.23;100437.28;5096665;27;66313;-60
2021/09/10 03:28:14;;;;;;;;;3.00;3.00;;;;;21.46;65.28;100430.13;5096486;27;71418;-61
2021/09/10 03:30:40;;;;;;;;;4.50;2.50;;;;;21.45;65.48;100431.94;5096822;27;56266;-61
2021/09/10 03:33:05;;;;;;;;;4.25;4.00;;;;;21.44;65.41;100441.00;5097259;27;47211;-60
2021/09/10 03:35:30;;;;;;;;;3.50;3.50;;;;;21.45;65.63;100436.50;5097201;27;46048;-61
2021/09/10 03:37:56;;;;;;;;;3.00;3.00;;;;;21.45;65.72;100437.28;5095651;27;64189;-61
2021/09/10 03:40:21;;;;;;;;;3.25;3.25;;;;;21.43;65.30;100434.00;5097354;27;45272;-60
2021/09/10 03:42:47;;;;;;;;;3.75;3.00;;;;;21.43;65.76;100434.00;5096887;27;45363;-61
2021/09/10 03:45:12;;;;;;;;;4.00;4.00;;;;;21.42;65.25;100428.88;5096249;27;71081;-60
2021/09/10 03:47:38;;;;;;;;;4.00;3.00;;;;;21.41;65.44;100430.72;5097228;27;45427;-58
2021/09/10 03:50:03;;;;;;;;;6.00;4.00;;;;;21.41;65.43;100424.56;5096346;27;63718;-58
2021/09/10 03:52:29;;;;;;;;;4.00;4.00;;;;;21.41;65.29;100421.91;5097270;27;45241;-61
2021/09/10 03:54:54;;;;;;;;;4.00;4.00;;;;;21.40;65.35;100423.75;5096460;27;60078;-61
2021/09/10 03:57:20;;;;;;;;;4.75;4.75;;;;;21.41;65.25;100425.38;5095961;27;71521;-59
2021/09/10 03:59:45;;;;;;;;;5.50;4.00;;;;;21.39;65.40;100427.44;5096452;27;61328;-61
2021/09/10 04:02:10;;;;;;;;;5.00;5.00;;;;;21.40;65.79;100425.59;5078065;27;45564;-59
2021/09/10 04:04:36;;;;;;;;;5.25;3.50;;;;;21.41;66.01;100429.91;5096139;27;66728;-59
2021/09/10 04:07:01;;;;;;;;;8.75;7.00;;;;;21.40;65.41;100428.28;5078601;27;45340;-61
2021/09/10 04:09:27;;;;;;;;;6.75;6.00;;;;;21.40;65.96;100434.44;5096894;27;45169;-59
2021/09/10 04:11:52;;;;;;;;;4.00;3.25;;;;;21.41;65.89;100433.41;5096445;27;57406;-61
2021/09/10 04:14:17;;;;;;;;;3.50;3.50;;;;;21.40;66.15;100442.44;5095887;27;70721;-60
2021/09/10 04:16:43;;;;;;;;;5.00;3.00;;;;;21.41;66.08;100444.09;5095823;27;71073;-60
2021/09/10 04:19:08;;;;;;;;;4.50;3.75;;;;;21.41;65.46;100444.09;5096102;27;65086;-60
2021/09/10 04:21:34;;;;;;;;;6.75;5.00;;;;;21.41;66.11;100446.75;5096129;27;54648;-60
2021/09/10 04:23:59;;;;;;;;;7.00;4.00;;;;;21.43;65.65;100455.41;5096652;27;46118;-60
2021/09/10 04:26:24;;;;;;;;;4.25;4.25;;;;;21.43;66.16;100450.06;5096297;27;57795;-60
2021/09/10 04:28:50;;;;;;;;;5.25;4.25;;;;;21.42;66.16;100439.59;5095592;27;68309;-61
2021/09/10 04:31:16;;;;;;;;;5.25;3.75;;;;;21.43;65.52;100447.38;5096196;27;58908;-61
2021/09/10 04:33:41;;;;;;;;;3.75;3.75;;;;;21.44;65.98;100445.53;5096393;27;46371;-61
2021/09/10 04:36:07;;;;;;;;;6.00;4.00;;;;;21.44;65.58;100442.88;5096649;27;45379;-61
2021/09/10 04:38:33;;;;;;;;;4.00;2.00;;;;;21.44;66.30;100441.00;5096570;27;45274;-61
2021/09/10 04:40:59;;;;;;;;;6.75;5.00;;;;;21.46;65.97;100443.47;5095682;27;64863;-61
2021/09/10 04:43:24;;;;;;;;;6.00;4.00;;;;;21.45;66.08;100453.34;5095577;27;72094;-60
2021/09/10 04:45:49;;;;;;;;;4.75;4.75;;;;;21.47;66.08;100450.44;5095755;27;67638;-61
2021/09/10 04:48:15;;;;;;;;;5.75;5.75;;;;;21.48;65.62;100449.41;5097021;27;63049;-61
2021/09/10 04:50:40;;;;;;;;;4.00;4.00;;;;;21.48;65.53;100449.41;5099053;27;66009;-60
2021/09/10 04:53:05;;;;;;;;;7.00;5.00;;;;;21.48;65.60;100452.06;5099258;27;62141;-61
2021/09/10 04:55:31;;;;;;;;;4.75;4.75;;;;;21.49;65.41;100451.03;5099034;27;62949;-61
2021/09/10 04:57:56;;;;;;;;;6.25;5.00;;;;;21.47;66.05;100443.25;5099525;27;49939;-61
2021/09/10 05:00:22;;;;;;;;;5.75;5.00;;;;;21.47;65.58;100451.28;5098974;27;64135;-61
2021/09/10 05:02:47;;;;;;;;;6.00;6.00;;;;;21.48;66.03;100454.75;5098657;27;69163;-61
2021/09/10 05:05:12;;;;;;;;;6.25;5.00;;;;;21.48;66.19;100458.25;5098911;27;60657;-61
2021/09/10 05:07:38;;;;;;;;;5.25;4.75;;;;;21.48;65.93;100463.59;5099773;27;45564;-60
2021/09/10 05:10:03;;;;;;;;;5.25;4.00;;;;;21.46;66.24;100454.97;5099506;27;45288;-61
2021/09/10 05:12:29;;;;;;;;;7.50;5.00;;;;;21.47;65.63;100464.63;5098244;27;45340;-61
2021/09/10 05:14:54;;;;;;;;;6.75;6.00;;;;;21.46;66.26;100463.00;5098748;27;59654;-60
2021/09/10 05:17:19;;;;;;;;;6.75;5.00;;;;;21.48;66.16;100468.13;5098423;27;69349;-60
2021/09/10 05:19:45;;;;;;;;;5.25;5.00;;;;;21.48;65.70;100470.78;5099063;27;51763;-61
2021/09/10 05:22:10;;;;;;;;;5.00;5.00;;;;;21.46;65.81;100476.34;5099025;27;46159;-61
2021/09/10 05:24:36;;;;;;;;;8.00;5.50;;;;;21.46;66.26;100476.34;5098809;27;58433;-62
2021/09/10 05:27:01;;;;;;;;;6.00;5.75;;;;;21.47;65.73;100477.16;5080230;27;59738;-61
2021/09/10 05:29:27;;;;;;;;;5.00;5.00;;;;;21.47;66.32;100482.50;5099404;27;45464;-61
2021/09/10 05:31:52;;;;;;;;;5.00;5.00;;;;;21.48;66.03;100478.81;5098631;27;59000;-61
2021/09/10 05:34:18;;;;;;;;;5.25;5.25;;;;;21.48;65.93;100478.81;5099034;27;45418;-62
2021/09/10 05:36:43;;;;;;;;;5.00;5.00;;;;;21.48;66.25;100478.81;5098957;27;45409;-61
2021/09/10 05:39:08;;;;;;;;;7.50;5.50;;;;;21.47;66.33;100482.50;5098229;27;63594;-61
2021/09/10 05:41:34;;;;;;;;;6.25;5.75;;;;;21.47;66.30;100486.03;5080019;27;65530;-61
2021/09/10 05:43:59;;;;;;;;;6.00;5.75;;;;;21.48;66.53;100485.00;5098109;27;67112;-60
2021/09/10 05:46:24;;;;;;;;;6.25;4.75;;;;;21.47;66.56;100486.03;5098981;27;45614;-59
2021/09/10 05:48:50;;;;;;;;;8.50;7.50;;;;;21.48;66.14;100487.66;5098784;27;45608;-61
2021/09/10 05:51:15;;;;;;;;;8.75;8.75;;;;;21.48;65.81;100490.34;5098491;27;46530;-62
2021/09/10 05:53:41;;;;;;;;;9.00;8.25;;;;;21.48;66.18;100495.69;5098585;27;45246;-61
2021/09/10 05:56:06;;;;;;;;;9.75;8.25;;;;;21.48;66.02;100502.88;5098678;27;45578;-60
2021/09/10 05:58:32;;;;;;;;;9.00;7.50;;;;;21.47;66.15;100502.06;5098893;27;45218;-59
2021/09/10 06:00:57;;;;;;;;;12.00;10.75;;;;;21.47;66.11;100510.06;5079757;27;45347;-60
2021/09/10 06:03:23;;;;;;;;;10.00;8.25;;;;;21.47;66.11;100503.91;5098491;27;45271;-61
2021/09/10 06:05:48;;;;;;;;;9.75;9.25;;;;;21.47;66.05;100512.75;5098859;27;45441;-60
2021/09/10 06:08:14;;;;;;;;;12.25;12.00;;;;;21.47;66.29;100509.25;5098458;27;45307;-60
2021/09/10 06:10:41;;;;;;;;;8.75;8.75;;;;;21.48;66.05;100516.22;5080473;27;45313;-61
2021/09/10 06:13:06;;;;;;;;;10.50;9.75;;;;;21.48;66.12;100514.41;5080109;27;45846;-60
2021/09/10 06:15:31;;;;;;;;;8.00;7.25;;;;;21.46;66.21;100516.47;5098638;27;45248;-61
2021/09/10 06:17:57;;;;;;;;;14.00;10.00;;;;;21.47;66.63;100518.09;5098425;27;45397;-61
2021/09/10 06:20:22;;;;;;;;;9.50;8.00;;;;;21.48;66.37;100518.91;5098511;27;45414;-61
2021/09/10 06:22:48;;;;;;;;;8.00;7.00;;;;;21.49;66.03;100528.56;5098226;27;45435;-61
2021/09/10 06:25:13;;;;;;;;;6.75;6.25;;;;;21.50;66.78;100528.38;5098310;27;45755;-60
2021/09/10 06:27:39;;;;;;;;;7.00;7.00;;;;;21.51;66.51;100526.50;5098399;27;45392;-61
2021/09/10 06:30:06;;;;;;;;;5.50;5.50;;;;;21.52;66.56;100527.34;5098268;27;46122;-60
2021/09/10 06:32:31;;;;;;;;;11.25;11.25;;;;;21.52;66.50;100522.81;5098148;27;45366;-61
2021/09/10 06:34:57;;;;;;;;;10.00;7.25;;;;;21.52;65.97;100528.16;5098353;27;45464;-61
2021/09/10 06:37:23;;;;;;;;;6.00;6.00;;;;;21.50;66.47;100523.03;5098309;27;45494;-60
2021/09/10 06:39:49;;;;;;;;;7.00;7.00;;;;;21.52;66.61;100530.03;5097952;27;46302;-61
2021/09/10 06:42:14;;;;;;;;;6.50;6.00;;;;;21.51;66.58;100529.19;5079625;27;45371;-60
2021/09/10 06:44:40;;;;;;;;;6.75;6.75;;;;;21.52;66.13;100527.34;5098284;27;45336;-60
2021/09/10 06:47:05;;;;;;;;;9.00;7.00;;;;;21.49;66.51;100534.75;5098159;27;45342;-61
2021/09/10 06:49:31;;;;;;;;;8.50;7.25;;;;;21.48;66.05;100527.75;5097797;27;46359;-61
2021/09/10 06:51:56;;;;;;;;;8.75;7.00;;;;;21.48;66.74;100538.44;5098027;27;45383;-61
2021/09/10 06:54:22;;;;;;;;;8.75;8.75;;;;;21.49;66.35;100541.94;5097995;27;45260;-61
2021/09/10 06:56:47;;;;;;;;;8.00;7.00;;;;;21.48;66.19;100546.47;5097947;27;45439;-60
2021/09/10 06:59:16;;;;;;;;;9.75;9.00;;;;;21.49;66.22;100550.78;5079451;27;48411;-60
2021/09/10 07:01:42;;;;;;;;;9.50;5.50;;;;;21.52;65.81;100554.06;5097760;27;45193;-60
2021/09/10 07:04:07;;;;;;;;;6.50;6.00;;;;;21.51;66.23;100553.25;5098064;27;45343;-60
2021/09/10 07:06:33;;;;;;;;;12.75;11.75;;;;;21.52;66.44;100549.53;5097941;27;45605;-60
2021/09/10 07:08:58;;;;;;;;;6.75;6.25;;;;;21.52;65.99;100543.38;5097466;27;47165;-61
2021/09/10 07:11:24;;;;;;;;;7.50;7.00;;;;;21.53;66.07;100545.84;5097602;27;45402;-60
2021/09/10 07:13:49;;;;;;;;;7.50;7.00;;;;;21.53;66.53;100555.72;5097866;27;45544;-60
2021/09/10 07:16:15;;;;;;;;;9.00;6.25;;;;;21.53;66.13;100556.53;5097485;27;45454;-61
2021/09/10 07:18:40;;;;;;;;;9.00;7.75;;;;;21.55;66.28;100559.00;5078020;27;45475;-61
2021/09/10 07:21:05;;;;;;;;;9.00;6.75;;;;;21.57;66.34;100562.28;5062364;27;45428;-60
2021/09/10 07:23:32;;;;;;;;;7.50;7.50;;;;;21.58;66.16;100564.75;5097448;27;45412;-60
2021/09/10 07:26:02;;;;;;;;;10.00;8.00;;;;;21.61;66.27;100561.66;5097461;27;45283;-60
2021/09/10 07:28:28;;;;;;;;;8.25;7.25;;;;;21.64;65.85;100563.13;5097240;27;46280;-61
2021/09/10 07:30:53;;;;;;;;;7.00;7.00;;;;;21.68;66.36;100558.19;5097222;27;45317;-60
2021/09/10 07:33:18;;;;;;;;;20.00;17.00;;;;;21.69;66.14;100566.00;5097362;27;45227;-60
2021/09/10 07:35:44;;;;;;;;;10.00;9.50;;;;;21.73;66.00;100569.06;5097226;27;45539;-61
2021/09/10 07:38:09;;;;;;;;;7.00;7.00;;;;;21.76;65.80;100572.13;5097111;27;46441;-60
2021/09/10 07:40:35;;;;;;;;;8.50;7.75;;;;;21.80;65.86;100569.88;5097116;27;45193;-61
2021/09/10 07:43:00;;;;;;;;;9.25;8.50;;;;;21.81;65.51;100574.19;5097235;27;45771;-60
2021/09/10 07:45:25;;;;;;;;;9.25;9.25;;;;;21.83;65.90;100576.66;5097030;27;45288;-61
2021/09/10 07:47:51;;;;;;;;;11.00;7.00;;;;;21.83;65.91;100576.66;5096843;27;45452;-61
2021/09/10 07:50:16;;;;;;;;;8.75;8.00;;;;;21.85;65.54;100585.28;5096964;27;45329;-61
2021/09/10 07:52:42;;;;;;;;;7.50;7.00;;;;;21.85;65.08;100587.97;5097024;27;45529;-59
2021/09/10 07:55:07;;;;;;;;;8.00;8.00;;;;;21.85;65.25;100579.94;5096918;27;45588;-61
2021/09/10 07:57:33;;;;;;;;;8.00;8.00;;;;;21.86;65.82;100578.91;5078186;27;47110;-60
2021/09/10 07:59:58;;;;;;;;;11.50;9.00;;;;;21.88;65.82;100584.88;5078649;27;45494;-61
2021/09/10 08:02:26;;;;;;;;;8.00;8.00;;;;;21.89;65.57;100582.00;5097112;27;45624;-60
2021/09/10 08:04:51;;;;;;;;;9.00;9.00;;;;;21.90;65.77;100590.84;5097030;27;45313;-61
2021/09/10 08:07:17;;;;;;;;;8.25;6.75;;;;;21.90;65.59;100590.84;5096732;27;45358;-60
2021/09/10 08:09:42;;;;;;;;;8.50;8.50;;;;;21.88;65.06;100593.72;5096872;27;45354;-61
2021/09/10 08:12:07;;;;;;;;;7.00;7.00;;;;;21.89;65.21;100597.22;5097033;27;45357;-60
2021/09/10 08:14:33;;;;;;;;;10.75;8.00;;;;;21.89;65.29;100590.03;5096180;27;61046;-60
2021/09/10 08:16:58;;;;;;;;;12.00;11.00;;;;;21.91;65.24;100601.34;5096609;27;46164;-61
2021/09/10 08:19:25;;;;;;;;;11.50;10.00;;;;;21.93;65.75;100599.28;5095998;27;64841;-61
2021/09/10 08:21:50;;;;;;;;;9.75;9.00;;;;;21.96;65.00;100598.03;5096703;27;45424;-59
2021/09/10 08:24:15;;;;;;;;;10.00;7.75;;;;;22.00;65.55;100599.25;5099991;27;45319;-60
2021/09/10 08:26:41;;;;;;;;;12.00;11.25;;;;;22.05;64.85;100603.94;5099682;27;45411;-61
2021/09/10 08:29:06;;;;;;;;;10.00;10.00;;;;;22.07;64.57;100610.75;5099646;27;50919;-60
2021/09/10 08:31:32;;;;;;;;;9.00;8.00;;;;;22.08;64.46;100601.69;5100172;27;45565;-59
2021/09/10 08:33:57;;;;;;;;;6.00;6.00;;;;;22.12;64.51;100610.09;5081650;27;48412;-61
2021/09/10 08:36:23;;;;;;;;;9.75;8.00;;;;;22.15;64.60;100616.91;5100099;27;45251;-61
2021/09/10 08:38:48;;;;;;;;;10.00;8.00;;;;;22.17;63.84;100612.97;5099984;27;45370;-61
2021/09/10 08:41:14;;;;;;;;;8.25;8.25;;;;;22.20;64.39;100617.91;5100281;27;45304;-61
2021/09/10 08:43:44;;;;;;;;;7.75;7.50;;;;;22.24;63.97;100623.69;5063722;27;63717;-61
2021/09/10 08:46:10;;;;;;;;;12.50;8.25;;;;;22.28;63.76;100619.50;5081659;27;46542;-61
2021/09/10 08:48:35;;;;;;;;;7.50;6.00;;;;;22.31;63.58;100615.59;5099005;27;67803;-61
2021/09/10 08:51:00;;;;;;;;;6.75;6.25;;;;;22.36;63.43;100619.28;5063966;27;67720;-60
2021/09/10 08:53:26;;;;;;;;;7.50;6.75;;;;;22.41;62.96;100612.47;5081632;27;45483;-61
2021/09/10 08:55:51;;;;;;;;;5.25;5.25;;;;;22.48;62.30;100615.97;5098685;27;75262;-61
2021/09/10 08:58:17;;;;;;;;;7.25;7.25;;;;;22.56;62.34;100626.44;5081072;27;57086;-60
2021/09/10 09:00:42;;;;;;;;;5.75;5.75;;;;;22.62;62.14;100630.94;5099121;27;62394;-61
2021/09/10 09:03:09;;;;;;;;;5.25;5.25;;;;;22.68;62.15;100632.78;5099829;27;45355;-60
2021/09/10 09:05:35;;;;;;;;;5.25;4.75;;;;;22.74;62.09;100636.44;5099659;27;46155;-61
2021/09/10 09:08:19;;;;;;;;;8.50;8.00;;;;;22.81;61.67;100636.38;5099589;27;45371;-61
2021/09/10 09:11:01;;;;;;;;;6.50;6.25;;;;;22.88;61.47;100631.81;5099786;27;45378;-61
2021/09/10 09:13:39;;;;;;;;;7.25;5.50;;;;;22.92;61.18;100632.22;5098676;27;45665;-60
2021/09/10 09:16:26;;;;;;;;;4.25;4.25;;;;;22.97;60.77;100625.16;5099287;27;46326;-59
2021/09/10 09:18:53;;;;;;;;;5.00;5.00;;;;;23.06;60.54;100624.91;5098513;27;45380;-60
2021/09/10 09:21:22;;;;;;;;;6.00;6.00;;;;;23.18;60.55;100615.13;5099550;27;45280;-60
2021/09/10 09:23:47;;;;;;;;;6.75;6.00;;;;;23.35;59.81;100625.31;5099569;27;45331;-61
2021/09/10 09:26:17;;;;;;;;;6.75;6.50;;;;;23.53;60.16;100625.38;5063440;27;46512;-61
2021/09/10 09:28:43;;;;;;;;;6.00;6.00;;;;;23.75;58.90;100626.81;5098593;27;45777;-61
2021/09/10 09:31:09;;;;;;;;;6.75;6.00;;;;;23.98;58.61;100634.22;5099536;27;45707;-61
2021/09/10 09:33:45;;;;;;;;;5.00;4.50;;;;;24.24;58.14;100635.00;5098977;27;45237;-62
2021/09/10 09:36:13;;;;;;;;;9.50;6.75;;;;;24.50;57.41;100631.16;5098338;27;45465;-61
2021/09/10 09:38:40;;;;;;;;;6.00;6.00;;;;;24.63;55.99;100630.16;5080898;27;45922;-61
2021/09/10 09:41:28;;;;;;;;;12.00;8.75;;;;;24.73;56.23;100640.38;5099172;27;45293;-61
2021/09/10 09:44:10;;;;;;;;;8.50;6.75;;;;;24.74;55.54;100642.84;5080842;27;45267;-61
2021/09/10 09:46:35;;;;;;;;;9.25;9.00;;;;;24.70;55.49;100641.66;5080322;27;47413;-60
2021/09/10 09:49:11;;;;;;;;;6.00;6.00;;;;;24.66;55.59;100645.00;5098698;27;45322;-60
2021/09/10 09:51:37;;;;;;;;;6.00;6.00;;;;;24.61;55.58;100645.69;5080821;27;45340;-61
2021/09/10 09:54:02;;;;;;;;;6.50;5.00;;;;;24.56;55.60;100645.53;5080447;27;45296;-61
2021/09/10 09:56:28;;;;;;;;;5.75;5.25;;;;;24.53;55.44;100646.00;5098413;27;45268;-61
2021/09/10 09:58:53;;;;;;;;;6.75;6.00;;;;;24.50;55.47;100649.13;5098309;27;45379;-61
2021/09/10 10:01:19;;;;;;;;;7.50;6.00;;;;;24.49;55.50;100642.13;5063666;27;45705;-61
2021/09/10 10:03:44;;;;;;;;;8.00;6.25;;;;;24.44;55.48;100648.19;5098746;27;45542;-61
2021/09/10 10:06:25;;;;;;;;;6.25;6.25;;;;;24.38;55.94;100643.72;5080252;27;45307;-62
2021/09/10 10:09:06;;;;;;;;;7.25;6.25;;;;;24.34;55.62;100643.34;5080174;27;45919;-62
2021/09/10 10:11:38;;;;;;;;;7.50;5.50;;;;;24.32;55.56;100642.75;5098473;27;45452;-61
2021/09/10 10:14:06;;;;;;;;;5.00;5.00;;;;;24.30;55.70;100647.53;5098687;27;45297;-60
2021/09/10 10:16:35;;;;;;;;;5.00;5.00;;;;;24.28;55.91;100645.06;5098257;27;46400;-61
2021/09/10 10:19:01;;;;;;;;;4.25;4.25;;;;;24.28;55.73;100638.88;5098781;27;45770;-60
2021/09/10 10:22:05;;;;;;;;;6.50;4.75;;;;;24.28;55.98;100645.06;5080075;27;45358;-61
2021/09/10 10:24:49;;;;;;;;;5.00;4.00;;;;;24.30;56.01;100634.13;4995178;28;45509;-61
2021/09/10 10:27:34;;;;;;;;;5.00;4.75;;;;;24.30;55.45;100639.47;5091127;27;46246;-61
2021/09/10 10:30:01;;;;;;;;;5.75;5.75;;;;;24.29;55.37;100640.53;5098119;27;45298;-61
2021/09/10 10:32:34;;;;;;;;;5.00;4.75;;;;;24.32;55.37;100639.25;5098106;27;45311;-61
2021/09/10 10:35:25;;;;;;;;;6.50;5.00;;;;;24.35;54.82;100628.88;5098139;27;45308;-60
2021/09/10 10:38:11;;;;;;;;;5.00;5.00;;;;;24.37;54.94;100628.66;5081778;27;45482;-61
2021/09/10 10:40:37;;;;;;;;;8.00;5.25;;;;;24.40;54.82;100620.94;5097740;27;45335;-62
2021/09/10 10:43:31;;;;;;;;;5.25;5.00;;;;;24.51;54.41;100626.59;5098150;27;45319;-62
2021/09/10 10:46:01;;;;;;;;;3.75;3.00;;;;;24.59;54.14;100624.44;5075466;27;45436;-60
2021/09/10 10:48:29;;;;;;;;;3.00;3.00;;;;;24.68;53.47;100624.09;5097843;27;46047;-60
2021/09/10 10:51:01;;;;;;;;;7.00;6.00;;;;;24.74;53.86;100620.53;5097929;27;45170;-61
2021/09/10 10:53:27;;;;;;;;;5.75;5.00;;;;;24.80;53.72;100625.00;5098080;27;45520;-61
2021/09/10 10:55:53;;;;;;;;;7.00;5.25;;;;;24.89;53.99;100618.25;5079457;27;45337;-60
2021/09/10 10:58:22;;;;;;;;;8.00;5.00;;;;;24.98;53.42;100613.34;5096641;27;70368;-61
2021/09/10 11:00:49;;;;;;;;;4.00;4.00;;;;;25.07;53.55;100615.72;5097082;27;45874;-61
2021/09/10 11:03:14;;;;;;;;;7.25;6.00;;;;;25.23;53.31;100614.22;5097818;27;45240;-60
2021/09/10 11:05:47;;;;;;;;;5.33;5.33;;;;;25.41;53.01;100607.94;5097843;27;45364;-61
2021/09/10 11:08:16;;;;;;;;;6.50;5.25;;;;;25.63;52.36;100609.00;5079140;27;46216;-61
2021/09/10 11:10:42;;;;;;;;;6.75;5.75;;;;;25.85;52.77;100611.09;5097517;27;45745;-60
2021/09/10 11:13:08;;;;;;;;;7.00;6.00;;;;;26.10;50.58;100604.59;5096737;27;65610;-61
2021/09/10 11:15:34;;;;;;;;;4.00;3.75;;;;;26.33;50.60;100597.53;5097637;27;45456;-61
2021/09/10 11:18:09;;;;;;;;;4.00;4.00;;;;;26.62;50.01;100594.81;5097324;27;46906;-61
2021/09/10 11:20:36;;;;;;;;;6.75;5.00;;;;;26.89;49.11;100591.53;5097354;27;45939;-61
2021/09/10 11:23:11;;;;;;;;;5.50;4.50;;;;;27.08;48.61;100598.31;5097316;27;45461;-61